Dr.kaiyo — JD2325 — position and weather

sailwx.info

Track history (hours):
 
Tides and Currents Weather Stations Pressure Air Temp Water Temp Dewpoint Dewpoint Depression Visibility Wind Speed Wind Dir Waves Ship Positions

Dr.kaiyo

Last reported at 2015-Sep-05 04:30 UTC. Time now 2015-Sep-05 05:49 UTC.
Position N 34°41' E 135°12'.

Length 31 m.

Type: Other ship. MMSI: 431301823.

Date/timePositionNaut miles runAvg speedWind from/ knotsBaromVisibWave heightAir tempDewpointWater temp
2015-Sep-05 04:30N 34°41' E 135°12'0 0.0
2015-Sep-05 03:24N 34°41' E 135°12'0 0.0
2015-Sep-05 02:30N 34°41' E 135°12'0 0.0
2015-Sep-05 01:30N 34°41' E 135°12'0 0.0
2015-Sep-05 00:30N 34°41' E 135°12'0 0.0
2015-Sep-04 23:30N 34°41' E 135°12'0 0.0
2015-Sep-04 22:30N 34°41' E 135°12'0 0.0
2015-Sep-04 21:30N 34°41' E 135°12'0 0.0
2015-Sep-04 20:30N 34°41' E 135°12'0 0.0
2015-Sep-04 19:30N 34°41' E 135°12'0 0.0
2015-Sep-04 18:30N 34°41' E 135°12'0 0.0
2015-Sep-04 17:30N 34°41' E 135°12'0 0.0
2015-Sep-04 16:24N 34°41' E 135°12'0 0.0
2015-Sep-04 15:30N 34°41' E 135°12'0 0.0
2015-Sep-04 14:11N 34°41' E 135°12'0 0.0
2015-Sep-04 13:29N 34°41' E 135°12'0 0.0
2015-Sep-04 12:29N 34°41' E 135°12'0 0.0
2015-Sep-04 11:29N 34°41' E 135°12'0 0.0
2015-Sep-04 10:17N 34°41' E 135°12'0 0.0
2015-Sep-04 09:29N 34°41' E 135°12'0 0.0
2015-Sep-04 08:29N 34°41' E 135°12'0 0.0
2015-Sep-04 07:29N 34°41' E 135°12'0 0.0
2015-Sep-04 06:22N 34°42' E 135°12'810.2
2015-Sep-04 05:33N 34°35' E 135°06'4 3.8
2015-Sep-04 04:29N 34°32' E 135°03'1 0.3
2015-Sep-04 02:33N 34°32' E 135°03'1 1.1
2015-Sep-04 01:33N 34°31' E 135°03'1211.5
2015-Sep-04 00:33N 34°40' E 135°12'1 1.0
2015-Sep-03 23:30N 34°41' E 135°13'2 0.1
2015-Sep-03 04:33N 34°41' E 135°15'4 3.5
2015-Sep-03 03:29N 34°40' E 135°20'3 3.7
2015-Sep-03 02:33N 34°37' E 135°18'7 7.3
2015-Sep-03 01:33N 34°35' E 135°09'3 2.9
2015-Sep-03 00:33N 34°38' E 135°09'5 4.2
2015-Sep-02 23:28N 34°41' E 135°12'0 0.0
2015-Sep-02 06:33N 34°42' E 135°12'1211.5
2015-Sep-02 05:33N 34°31' E 135°07'4 3.7
2015-Sep-02 04:32N 34°31' E 135°11'4 3.3
2015-Sep-02 03:13N 34°29' E 135°16'5 6.4
2015-Sep-02 02:28N 34°29' E 135°11'7 7.6
2015-Sep-02 01:33N 34°26' E 135°03'6 6.4
2015-Sep-02 00:33N 34°33' E 135°05'1111.0
2015-Sep-01 23:33N 34°42' E 135°13'0 0.0
2015-Sep-01 06:31N 34°41' E 135°12'3 2.9
2015-Sep-01 05:33N 34°39' E 135°11'2 2.2
2015-Sep-01 04:30N 34°41' E 135°13'2 2.3
2015-Sep-01 03:33N 34°39' E 135°12'0 0.0
2015-Sep-01 02:33N 34°39' E 135°12'3 3.3
2015-Sep-01 01:33N 34°38' E 135°15'5 4.3
2015-Sep-01 00:28N 34°41' E 135°12'0 0.0
2015-Aug-31 06:04N 34°41' E 135°12'  
2015-Aug-26 05:17N 34°42' E 135°12'1 1.0
2015-Aug-26 04:33N 34°41' E 135°13'  
Track history (hours):
 
Tides and Currents Weather Stations Pressure Air Temp Water Temp Dewpoint Dewpoint Depression Visibility Wind Speed Wind Dir Waves Ship Positions

Dr.kaiyo

Last reported at 2015-Sep-05 04:30 UTC. Time now 2015-Sep-05 05:49 UTC.
Position N 34°41' E 135°12'.

Length 31 m.

Type: Other ship. MMSI: 431301823.

Date/timePositionNaut miles runAvg speedWind from/ knotsBaromVisibWave heightAir tempDewpointWater temp
2015-Sep-05 04:30N 34°41' E 135°12'0 0.0
2015-Sep-05 03:24N 34°41' E 135°12'0 0.0
2015-Sep-05 02:30N 34°41' E 135°12'0 0.0
2015-Sep-05 01:30N 34°41' E 135°12'0 0.0
2015-Sep-05 00:30N 34°41' E 135°12'0 0.0
2015-Sep-04 23:30N 34°41' E 135°12'0 0.0
2015-Sep-04 22:30N 34°41' E 135°12'0 0.0
2015-Sep-04 21:30N 34°41' E 135°12'0 0.0
2015-Sep-04 20:30N 34°41' E 135°12'0 0.0
2015-Sep-04 19:30N 34°41' E 135°12'0 0.0
2015-Sep-04 18:30N 34°41' E 135°12'0 0.0
2015-Sep-04 17:30N 34°41' E 135°12'0 0.0
2015-Sep-04 16:24N 34°41' E 135°12'0 0.0
2015-Sep-04 15:30N 34°41' E 135°12'0 0.0
2015-Sep-04 14:11N 34°41' E 135°12'0 0.0
2015-Sep-04 13:29N 34°41' E 135°12'0 0.0
2015-Sep-04 12:29N 34°41' E 135°12'0 0.0
2015-Sep-04 11:29N 34°41' E 135°12'0 0.0
2015-Sep-04 10:17N 34°41' E 135°12'0 0.0
2015-Sep-04 09:29N 34°41' E 135°12'0 0.0
2015-Sep-04 08:29N 34°41' E 135°12'0 0.0
2015-Sep-04 07:29N 34°41' E 135°12'0 0.0
2015-Sep-04 06:22N 34°42' E 135°12'810.2
2015-Sep-04 05:33N 34°35' E 135°06'4 3.8
2015-Sep-04 04:29N 34°32' E 135°03'1 0.3
2015-Sep-04 02:33N 34°32' E 135°03'1 1.1
2015-Sep-04 01:33N 34°31' E 135°03'1211.5
2015-Sep-04 00:33N 34°40' E 135°12'1 1.0
2015-Sep-03 23:30N 34°41' E 135°13'2 0.1
2015-Sep-03 04:33N 34°41' E 135°15'4 3.5
2015-Sep-03 03:29N 34°40' E 135°20'3 3.7
2015-Sep-03 02:33N 34°37' E 135°18'7 7.3
2015-Sep-03 01:33N 34°35' E 135°09'3 2.9
2015-Sep-03 00:33N 34°38' E 135°09'5 4.2
2015-Sep-02 23:28N 34°41' E 135°12'0 0.0
2015-Sep-02 06:33N 34°42' E 135°12'1211.5
2015-Sep-02 05:33N 34°31' E 135°07'4 3.7
2015-Sep-02 04:32N 34°31' E 135°11'4 3.3
2015-Sep-02 03:13N 34°29' E 135°16'5 6.4
2015-Sep-02 02:28N 34°29' E 135°11'7 7.6
2015-Sep-02 01:33N 34°26' E 135°03'6 6.4
2015-Sep-02 00:33N 34°33' E 135°05'1111.0
2015-Sep-01 23:33N 34°42' E 135°13'0 0.0
2015-Sep-01 06:31N 34°41' E 135°12'3 2.9
2015-Sep-01 05:33N 34°39' E 135°11'2 2.2
2015-Sep-01 04:30N 34°41' E 135°13'2 2.3
2015-Sep-01 03:33N 34°39' E 135°12'0 0.0
2015-Sep-01 02:33N 34°39' E 135°12'3 3.3
2015-Sep-01 01:33N 34°38' E 135°15'5 4.3
2015-Sep-01 00:28N 34°41' E 135°12'0 0.0
2015-Aug-31 06:04N 34°41' E 135°12'  
2015-Aug-26 05:17N 34°42' E 135°12'1 1.0
2015-Aug-26 04:33N 34°41' E 135°13'  

Dump ship's entire track history